Capt Amer — 3FCQ3 — position and weather

sailwx.info

Track history (hours):
 
Tides and Currents Weather Stations Pressure Air Temp Water Temp Dewpoint Dewpoint Depression Visibility Wind Speed Wind Dir Waves Ship Positions

Capt Amer

Last reported at 2017-Apr-11 22:57 UTC. Time now 2017-Apr-29 01:51 UTC.
Position N 40°56' E 028°60'.
Warning: this ship's position is 17 days out of date.

Length 113 m; draft 5.1 m.

Type: Cargo ship. MMSI: 373175000.

Date/timePositionNaut miles runAvg speedWind from/ knotsBaromVisibWave heightAir tempDewpointWater temp
2017-Apr-11 22:57N 40°56' E 028°60'3 7.3
2017-Apr-11 22:29N 40°53' E 029°01'4 8.3
2017-Apr-11 21:59N 40°50' E 028°57'2 0.3
2017-Apr-11 15:52N 40°51' E 028°60'1 0.9
2017-Apr-11 14:39N 40°50' E 028°59'  
2017-Apr-06 04:17N 35°45' E 014°24'311.0
2017-Apr-06 04:00N 35°47' E 014°21'611.4
2017-Apr-06 03:30N 35°51' E 014°17'611.3
2017-Apr-06 03:00N 35°56' E 014°13'611.4
2017-Apr-06 02:30N 36°01' E 014°09'611.3
2017-Apr-06 02:00N 36°06' E 014°07'510.4
2017-Apr-06 01:30N 36°07' E 014°01'  
Track history (hours):
 
Tides and Currents Weather Stations Pressure Air Temp Water Temp Dewpoint Dewpoint Depression Visibility Wind Speed Wind Dir Waves Ship Positions

Capt Amer

Last reported at 2017-Apr-11 22:57 UTC. Time now 2017-Apr-29 01:51 UTC.
Position N 40°56' E 028°60'.
Warning: this ship's position is 17 days out of date.

Length 113 m; draft 5.1 m.

Type: Cargo ship. MMSI: 373175000.

Date/timePositionNaut miles runAvg speedWind from/ knotsBaromVisibWave heightAir tempDewpointWater temp
2017-Apr-11 22:57N 40°56' E 028°60'3 7.3
2017-Apr-11 22:29N 40°53' E 029°01'4 8.3
2017-Apr-11 21:59N 40°50' E 028°57'2 0.3
2017-Apr-11 15:52N 40°51' E 028°60'1 0.9
2017-Apr-11 14:39N 40°50' E 028°59'  
2017-Apr-06 04:17N 35°45' E 014°24'311.0
2017-Apr-06 04:00N 35°47' E 014°21'611.4
2017-Apr-06 03:30N 35°51' E 014°17'611.3
2017-Apr-06 03:00N 35°56' E 014°13'611.4
2017-Apr-06 02:30N 36°01' E 014°09'611.3
2017-Apr-06 02:00N 36°06' E 014°07'510.4
2017-Apr-06 01:30N 36°07' E 014°01'  

Dump ship's entire track history